createdAt,value
2019-01-24T00:03:58.906Z,-4.20
2019-01-24T00:14:04.278Z,-4.30
2019-01-24T00:24:09.652Z,-4.20
2019-01-24T00:34:15.050Z,-4.20
2019-01-24T00:44:20.376Z,-4.30
2019-01-24T00:54:25.690Z,-4.30
2019-01-24T01:04:30.938Z,-4.30
2019-01-24T01:14:37.296Z,-4.10
2019-01-24T01:24:42.702Z,-4.00
2019-01-24T01:34:48.006Z,-4.10
2019-01-24T01:44:53.243Z,-4.10
2019-01-24T01:54:58.542Z,-4.10
2019-01-24T02:05:04.365Z,-4.30
2019-01-24T02:15:10.650Z,-4.20
2019-01-24T02:25:16.055Z,-4.10
2019-01-24T02:35:21.334Z,-4.20
2019-01-24T02:45:26.705Z,-4.10
2019-01-24T02:55:32.499Z,-4.10
2019-01-24T03:05:37.787Z,-4.10
2019-01-24T03:15:43.081Z,-4.00
2019-01-24T03:25:48.432Z,-4.00
2019-01-24T03:35:53.755Z,-3.90
2019-01-24T03:45:58.962Z,-3.90
2019-01-24T03:56:04.338Z,-3.90
2019-01-24T04:06:09.725Z,-3.90
2019-01-24T04:16:15.141Z,-3.90
2019-01-24T04:26:20.472Z,-4.00
2019-01-24T04:36:25.750Z,-4.00
2019-01-24T04:46:31.067Z,-4.30
2019-01-24T04:56:37.321Z,-4.40
2019-01-24T05:06:42.655Z,-4.40
2019-01-24T05:16:48.038Z,-4.50
2019-01-24T05:26:53.358Z,-4.40
2019-01-24T05:36:58.687Z,-4.10
2019-01-24T05:47:04.013Z,-4.10
2019-01-24T05:57:09.365Z,-4.00
2019-01-24T06:07:14.647Z,-4.10
2019-01-24T06:17:19.938Z,-4.40
2019-01-24T06:27:25.366Z,-4.60
2019-01-24T06:37:30.704Z,-4.60
2019-01-24T06:47:36.022Z,-4.60
2019-01-24T06:57:41.448Z,-4.70
2019-01-24T07:07:46.952Z,-4.80
2019-01-24T07:17:52.564Z,-5.10
2019-01-24T07:27:57.958Z,-5.00
2019-01-24T07:38:03.308Z,-4.80
2019-01-24T07:48:08.936Z,-4.80
2019-01-24T07:58:14.746Z,-4.90
2019-01-24T08:08:20.261Z,-4.80
2019-01-24T08:18:25.835Z,-4.50
2019-01-24T08:28:31.195Z,-4.60
2019-01-24T08:38:36.658Z,-4.20
2019-01-24T08:48:42.164Z,-4.30
2019-01-24T08:58:47.608Z,-4.20
2019-01-24T09:08:52.956Z,-4.20
2019-01-24T09:18:58.384Z,-3.90
2019-01-24T09:29:03.739Z,-3.90
2019-01-24T09:39:09.784Z,-3.80
2019-01-24T09:49:15.737Z,-3.50
2019-01-24T09:59:21.105Z,-3.30
2019-01-24T10:09:26.493Z,-3.10
2019-01-24T10:19:31.790Z,-2.90
2019-01-24T10:29:37.225Z,-2.80
2019-01-24T10:39:42.668Z,-2.90
2019-01-24T10:49:48.124Z,-2.80
2019-01-24T10:59:53.456Z,-2.90
2019-01-24T11:09:58.921Z,-3.20
2019-01-24T11:20:05.484Z,-3.30
2019-01-24T11:30:13.211Z,-3.20
2019-01-24T11:40:18.690Z,-3.20
2019-01-24T11:50:24.137Z,-3.20
2019-01-24T12:00:36.676Z,-2.90
2019-01-24T12:10:42.569Z,-2.90
2019-01-24T12:20:48.208Z,-2.80
2019-01-24T12:30:53.535Z,-2.90
2019-01-24T12:40:59.455Z,-2.90
2019-01-24T12:51:04.917Z,-2.80
2019-01-24T13:01:10.514Z,-2.80
2019-01-24T13:11:15.750Z,-2.80
2019-01-24T13:21:21.056Z,-2.90
2019-01-24T13:31:26.544Z,-2.80
2019-01-24T13:41:32.124Z,-2.70
2019-01-24T13:51:37.682Z,-2.70
2019-01-24T14:01:43.028Z,-2.80
2019-01-24T14:11:48.556Z,-2.80
2019-01-24T14:21:55.031Z,-3.00
2019-01-24T14:32:00.617Z,-3.10
2019-01-24T14:42:06.040Z,-3.10
2019-01-24T14:52:11.539Z,-3.30
2019-01-24T15:02:17.187Z,-3.40
2019-01-24T15:12:22.776Z,-3.50
2019-01-24T15:22:28.195Z,-3.70
2019-01-24T15:32:33.594Z,-3.80
2019-01-24T15:42:39.127Z,-3.90
2019-01-24T15:52:44.679Z,-4.00
2019-01-24T16:02:50.237Z,-4.10
2019-01-24T16:12:55.952Z,-4.10
2019-01-24T16:23:01.294Z,-4.20
2019-01-24T16:33:08.246Z,-4.20
2019-01-24T16:43:13.829Z,-4.40
2019-01-24T16:53:19.225Z,-4.40
2019-01-24T17:03:24.821Z,-4.50
2019-01-24T17:13:30.489Z,-4.50
2019-01-24T17:23:36.201Z,-4.60
2019-01-24T17:33:41.530Z,-4.60
2019-01-24T17:43:47.333Z,-4.50
2019-01-24T17:53:52.710Z,-4.60
2019-01-24T18:03:59.861Z,-4.80
2019-01-24T18:14:05.989Z,-4.80
2019-01-24T18:24:11.363Z,-4.70
2019-01-24T18:34:16.720Z,-4.60
2019-01-24T18:44:22.078Z,-4.60
2019-01-24T18:54:28.310Z,-4.80
2019-01-24T19:04:33.912Z,-4.90
2019-01-24T19:14:39.280Z,-4.90
2019-01-24T19:24:44.740Z,-5.10
2019-01-24T19:34:51.124Z,-5.10
2019-01-24T19:44:56.466Z,-5.00
2019-01-24T19:55:01.799Z,-5.00
2019-01-24T20:05:08.305Z,-5.30
2019-01-24T20:15:16.609Z,-5.20
2019-01-24T20:25:24.224Z,-5.30
2019-01-24T20:35:41.020Z,-5.30
2019-01-24T20:45:46.345Z,-5.20
2019-01-24T20:55:52.761Z,-5.30
2019-01-24T21:05:58.254Z,-5.30
2019-01-24T21:16:03.994Z,-5.20
2019-01-24T21:26:09.322Z,-5.20
2019-01-24T21:36:14.643Z,-5.20
2019-01-24T21:46:20.004Z,-5.10
2019-01-24T21:56:25.424Z,-5.10
2019-01-24T22:06:30.788Z,-5.20
2019-01-24T22:16:36.032Z,-5.10
2019-01-24T22:26:41.371Z,-5.20
2019-01-24T22:36:47.034Z,-5.10
2019-01-24T22:46:52.515Z,-5.20
2019-01-24T22:56:57.854Z,-5.20
2019-01-24T23:07:03.301Z,-5.20
2019-01-24T23:17:08.921Z,-5.30
2019-01-24T23:27:14.553Z,-5.20
2019-01-24T23:37:20.111Z,-5.20
2019-01-24T23:47:25.749Z,-5.30
2019-01-24T23:57:31.326Z,-5.20
